Narita International Airport
RJAA : now visible

Airfield :











YOU CAN JOIN US ON...

 
LOGIN :

Register | Disclaimer

   EN    FR    IT 

 









Legend :    VFR   Marginal VFR   IFR   Intensive IFR   Very Intensive IFR
Visi :
Ceiling :
>= 8 km
>= 3000ft
5 to 8 km
1000 to 3000 ft
1500m to 5 km
500 to 1000 ft
800 to 1500m
200 to 500 ft
< 800m
< 200 ft
Symbols :   Thunderstorms  Fog  Heavy snow  Heavy precipitations  Wind > 20 kt






- Airport Elevation : 141 ft
- IATA code : NRT


RJAA - Narita International

CURRENT METAR :
  • 280830Z 13006KT 9999 FEW030 BKN/// 06/M04 Q1022 NOSIG RMK 1CU030 A3019

EXPIRED METARs :
  • 280800Z 14006KT 9999 FEW030 BKN/// 07/M04 Q1022 NOSIG
  • 280730Z 13010KT 9999 FEW030 BKN/// 07/M04 Q1021 NOSIG RMK 1CU030 A3018
  • 280630Z 26003KT 210V340 9999 FEW030 BKN/// 09/M05 Q1021 BECMG 15006KT RMK 1CU030 A3017
  • 280600Z 29005KT 230V350 9999 FEW030 BKN/// 09/M05 Q1021 BECMG 15006KT RMK 1CU030 A3016

TAF AMD TAF RJAA
Valid from the 28 at 07:00 until the 29 at 12:00 UTC


280709Z 2807/2912 15005KT 9999 FEW030
BECMG 2815/2817 04004KT
BECMG 2903/2906 17006KT



MET'MAP, your aeronautical weather chart ! - Copyright ORBIFLY December 2007 - Disclaimer

ORBIFLY MET'MAP TEAM :

Programming & Development : Alexandra Zaïnal
Concept & original design : Baudouin d'Aumeries
Assistance for programming : Marc-Olivier Méhu
Technical & hardware support : Manuel Goepfert

Contact : metmap@orbifly.com




SOURCES & CREDITS :

   NOAA       Earth
Advisory